sensor_id;sensor_type;location;lat;lon;timestamp;pressure;altitude;pressure_sealevel;temperature;humidity
71805;BME280;59654;52.216;5.616;2023-04-30T00:00:16;102183.88;;;5.38;91.15
71805;BME280;59654;52.216;5.616;2023-04-30T00:00:48;102186.50;;;5.38;91.17
71805;BME280;59654;52.216;5.616;2023-04-30T00:01:19;102185.63;;;5.38;91.03
71805;BME280;59654;52.216;5.616;2023-04-30T00:01:51;102183.84;;;5.37;91.21
71805;BME280;59654;52.216;5.616;2023-04-30T00:02:23;102186.50;;;5.37;91.19
71805;BME280;59654;52.216;5.616;2023-04-30T00:02:54;102182.09;;;5.37;91.23
71805;BME280;59654;52.216;5.616;2023-04-30T00:03:25;102179.44;;;5.34;91.28
71805;BME280;59654;52.216;5.616;2023-04-30T00:03:56;102180.31;;;5.32;91.07
71805;BME280;59654;52.216;5.616;2023-04-30T00:04:26;102181.19;;;5.32;91.36
71805;BME280;59654;52.216;5.616;2023-04-30T00:04:57;102181.19;;;5.32;91.69
71805;BME280;59654;52.216;5.616;2023-04-30T00:05:28;102184.66;;;5.31;91.26
71805;BME280;59654;52.216;5.616;2023-04-30T00:05:59;102180.25;;;5.30;91.38
71805;BME280;59654;52.216;5.616;2023-04-30T00:06:30;102187.31;;;5.30;91.24
71805;BME280;59654;52.216;5.616;2023-04-30T00:07:01;102182.88;;;5.29;91.16
71805;BME280;59654;52.216;5.616;2023-04-30T00:07:32;102195.22;;;5.28;91.65
71805;BME280;59654;52.216;5.616;2023-04-30T00:08:03;102182.00;;;5.28;91.63
71805;BME280;59654;52.216;5.616;2023-04-30T00:08:34;102182.00;;;5.30;91.45
71805;BME280;59654;52.216;5.616;2023-04-30T00:09:05;102191.72;;;5.29;91.16
71805;BME280;59654;52.216;5.616;2023-04-30T00:09:36;102182.00;;;5.28;91.69
71805;BME280;59654;52.216;5.616;2023-04-30T00:10:10;102195.22;;;5.28;91.58
71805;BME280;59654;52.216;5.616;2023-04-30T00:10:41;102190.84;;;5.27;91.58
71805;BME280;59654;52.216;5.616;2023-04-30T00:11:12;102193.50;;;5.27;91.40
71805;BME280;59654;52.216;5.616;2023-04-30T00:11:42;102189.97;;;5.27;92.10
71805;BME280;59654;52.216;5.616;2023-04-30T00:12:13;102183.78;;;5.25;90.83
71805;BME280;59654;52.216;5.616;2023-04-30T00:12:44;102193.44;;;5.23;91.40
71805;BME280;59654;52.216;5.616;2023-04-30T00:13:15;102191.69;;;5.22;91.61
71805;BME280;59654;52.216;5.616;2023-04-30T00:13:46;102191.66;;;5.20;91.48
71805;BME280;59654;52.216;5.616;2023-04-30T00:14:17;102189.91;;;5.19;91.42
71805;BME280;59654;52.216;5.616;2023-04-30T00:14:48;102191.66;;;5.19;91.30
71805;BME280;59654;52.216;5.616;2023-04-30T00:15:19;102190.75;;;5.17;91.55
71805;BME280;59654;52.216;5.616;2023-04-30T00:15:50;102187.22;;;5.16;91.51
71805;BME280;59654;52.216;5.616;2023-04-30T00:16:21;102189.88;;;5.16;91.68
71805;BME280;59654;52.216;5.616;2023-04-30T00:16:51;102188.13;;;5.17;91.68
71805;BME280;59654;52.216;5.616;2023-04-30T00:17:22;102184.56;;;5.13;91.83
71805;BME280;59654;52.216;5.616;2023-04-30T00:17:53;102196.03;;;5.15;91.79
71805;BME280;59654;52.216;5.616;2023-04-30T00:18:24;102187.22;;;5.15;91.79
71805;BME280;59654;52.216;5.616;2023-04-30T00:18:55;102192.50;;;5.15;92.15
71805;BME280;59654;52.216;5.616;2023-04-30T00:19:26;102186.34;;;5.17;92.17
71805;BME280;59654;52.216;5.616;2023-04-30T00:19:57;102196.94;;;5.19;91.47
71805;BME280;59654;52.216;5.616;2023-04-30T00:20:27;102186.34;;;5.17;91.41
71805;BME280;59654;52.216;5.616;2023-04-30T00:20:58;102191.66;;;5.19;91.23
71805;BME280;59654;52.216;5.616;2023-04-30T00:21:29;102190.78;;;5.18;91.45
71805;BME280;59654;52.216;5.616;2023-04-30T00:22:00;102197.81;;;5.18;91.16
71805;BME280;59654;52.216;5.616;2023-04-30T00:22:31;102188.13;;;5.18;90.71
71805;BME280;59654;52.216;5.616;2023-04-30T00:23:03;102188.13;;;5.17;90.55
71805;BME280;59654;52.216;5.616;2023-04-30T00:23:33;102196.06;;;5.17;90.28
71805;BME280;59654;52.216;5.616;2023-04-30T00:24:04;102191.63;;;5.16;90.64
71805;BME280;59654;52.216;5.616;2023-04-30T00:24:35;102190.75;;;5.15;90.51
71805;BME280;59654;52.216;5.616;2023-04-30T00:25:06;102189.84;;;5.13;90.77
71805;BME280;59654;52.216;5.616;2023-04-30T00:25:38;102193.38;;;5.12;90.42
71805;BME280;59654;52.216;5.616;2023-04-30T00:26:09;102190.75;;;5.11;90.78
71805;BME280;59654;52.216;5.616;2023-04-30T00:26:41;102193.38;;;5.12;91.11
71805;BME280;59654;52.216;5.616;2023-04-30T00:27:13;102188.09;;;5.11;91.02
71805;BME280;59654;52.216;5.616;2023-04-30T00:27:44;102185.44;;;5.09;91.17
71805;BME280;59654;52.216;5.616;2023-04-30T00:28:15;102185.44;;;5.07;91.66
71805;BME280;59654;52.216;5.616;2023-04-30T00:28:46;102190.72;;;5.06;91.82
71805;BME280;59654;52.216;5.616;2023-04-30T00:29:17;102184.53;;;5.05;91.86
71805;BME280;59654;52.216;5.616;2023-04-30T00:29:48;102188.94;;;5.05;91.85
71805;BME280;59654;52.216;5.616;2023-04-30T00:30:18;102190.69;;;5.04;91.33
71805;BME280;59654;52.216;5.616;2023-04-30T00:30:50;102193.34;;;5.03;91.18
71805;BME280;59654;52.216;5.616;2023-04-30T00:31:21;102188.03;;;5.01;91.27
71805;BME280;59654;52.216;5.616;2023-04-30T00:31:51;102188.00;;;5.00;90.99
71805;BME280;59654;52.216;5.616;2023-04-30T00:32:22;102190.66;;;5.00;90.68
71805;BME280;59654;52.216;5.616;2023-04-30T00:32:53;102188.88;;;4.97;90.66
71805;BME280;59654;52.216;5.616;2023-04-30T00:33:24;102193.28;;;4.97;90.47
71805;BME280;59654;52.216;5.616;2023-04-30T00:33:54;102192.38;;;4.96;90.34
71805;BME280;59654;52.216;5.616;2023-04-30T00:34:26;102197.69;;;4.95;90.81
71805;BME280;59654;52.216;5.616;2023-04-30T00:34:57;102195.06;;;4.95;90.66
71805;BME280;59654;52.216;5.616;2023-04-30T00:35:28;102193.28;;;4.94;90.80
71805;BME280;59654;52.216;5.616;2023-04-30T00:35:59;102197.66;;;4.92;91.11
71805;BME280;59654;52.216;5.616;2023-04-30T00:36:30;102189.75;;;4.92;91.49
71805;BME280;59654;52.216;5.616;2023-04-30T00:37:01;102195.03;;;4.92;91.43
71805;BME280;59654;52.216;5.616;2023-04-30T00:37:32;102192.38;;;4.92;91.62
71805;BME280;59654;52.216;5.616;2023-04-30T00:38:04;102191.50;;;4.90;91.71
71805;BME280;59654;52.216;5.616;2023-04-30T00:38:34;102191.50;;;4.90;91.89
71805;BME280;59654;52.216;5.616;2023-04-30T00:39:05;102191.47;;;4.88;91.22
71805;BME280;59654;52.216;5.616;2023-04-30T00:39:36;102183.53;;;4.88;90.59
71805;BME280;59654;52.216;5.616;2023-04-30T00:40:07;102194.97;;;4.86;90.64
71805;BME280;59654;52.216;5.616;2023-04-30T00:40:40;102193.19;;;4.82;91.01
71805;BME280;59654;52.216;5.616;2023-04-30T00:41:12;102200.22;;;4.83;90.52
71805;BME280;59654;52.216;5.616;2023-04-30T00:41:43;102188.78;;;4.79;90.81
71805;BME280;59654;52.216;5.616;2023-04-30T00:42:13;102194.91;;;4.77;90.79
71805;BME280;59654;52.216;5.616;2023-04-30T00:42:44;102187.88;;;4.76;90.65
71805;BME280;59654;52.216;5.616;2023-04-30T00:43:15;102193.16;;;4.76;89.72
71805;BME280;59654;52.216;5.616;2023-04-30T00:43:47;102195.75;;;4.71;90.77
71805;BME280;59654;52.216;5.616;2023-04-30T00:44:17;102199.25;;;4.70;91.14
71805;BME280;59654;52.216;5.616;2023-04-30T00:44:48;102196.59;;;4.68;91.09
71805;BME280;59654;52.216;5.616;2023-04-30T00:45:19;102198.34;;;4.66;90.73
71805;BME280;59654;52.216;5.616;2023-04-30T00:45:53;102197.44;;;4.64;91.48
71805;BME280;59654;52.216;5.616;2023-04-30T00:46:27;102200.97;;;4.62;91.22
71805;BME280;59654;52.216;5.616;2023-04-30T00:46:58;102200.94;;;4.59;90.87
71805;BME280;59654;52.216;5.616;2023-04-30T00:47:29;102200.91;;;4.56;91.09
71805;BME280;59654;52.216;5.616;2023-04-30T00:48:01;102199.13;;;4.53;91.24
71805;BME280;59654;52.216;5.616;2023-04-30T00:48:32;102199.13;;;4.52;91.98
71805;BME280;59654;52.216;5.616;2023-04-30T00:49:04;102198.22;;;4.50;91.67
71805;BME280;59654;52.216;5.616;2023-04-30T00:49:35;102198.22;;;4.51;92.36
71805;BME280;59654;52.216;5.616;2023-04-30T00:50:06;102193.84;;;4.52;92.10
71805;BME280;59654;52.216;5.616;2023-04-30T00:50:38;102195.59;;;4.51;91.61
71805;BME280;59654;52.216;5.616;2023-04-30T00:51:10;102199.13;;;4.52;91.62
71805;BME280;59654;52.216;5.616;2023-04-30T00:51:42;102200.88;;;4.51;91.46
71805;BME280;59654;52.216;5.616;2023-04-30T00:52:13;102197.34;;;4.51;91.15
71805;BME280;59654;52.216;5.616;2023-04-30T00:52:45;102195.59;;;4.51;91.72
71805;BME280;59654;52.216;5.616;2023-04-30T00:53:16;102190.31;;;4.51;91.59
71805;BME280;59654;52.216;5.616;2023-04-30T00:53:47;102196.47;;;4.52;92.06
71805;BME280;59654;52.216;5.616;2023-04-30T00:54:19;102199.13;;;4.52;91.92
71805;BME280;59654;52.216;5.616;2023-04-30T00:54:50;102196.50;;;4.53;92.49
71805;BME280;59654;52.216;5.616;2023-04-30T00:55:23;102198.25;;;4.54;92.43
71805;BME280;59654;52.216;5.616;2023-04-30T00:55:55;102200.91;;;4.56;92.57
71805;BME280;59654;52.216;5.616;2023-04-30T00:56:28;102201.81;;;4.56;92.77
71805;BME280;59654;52.216;5.616;2023-04-30T00:57:06;102202.69;;;4.58;92.94
71805;BME280;59654;52.216;5.616;2023-04-30T00:57:39;102205.34;;;4.60;92.72
71805;BME280;59654;52.216;5.616;2023-04-30T00:58:10;102207.13;;;4.61;92.61
71805;BME280;59654;52.216;5.616;2023-04-30T00:58:42;102205.34;;;4.60;92.65
71805;BME280;59654;52.216;5.616;2023-04-30T00:59:13;102199.22;;;4.61;92.84
71805;BME280;59654;52.216;5.616;2023-04-30T00:59:45;102208.88;;;4.63;92.77
71805;BME280;59654;52.216;5.616;2023-04-30T01:00:16;102205.38;;;4.63;92.63
71805;BME280;59654;52.216;5.616;2023-04-30T01:00:49;102201.84;;;4.64;92.69
71805;BME280;59654;52.216;5.616;2023-04-30T01:01:23;102206.25;;;4.63;92.08
71805;BME280;59654;52.216;5.616;2023-04-30T01:01:54;102204.47;;;4.64;92.34
71805;BME280;59654;52.216;5.616;2023-04-30T01:02:26;102206.25;;;4.63;92.11
71805;BME280;59654;52.216;5.616;2023-04-30T01:02:57;102208.88;;;4.63;91.70
71805;BME280;59654;52.216;5.616;2023-04-30T01:03:28;102214.19;;;4.62;91.88
71805;BME280;59654;52.216;5.616;2023-04-30T01:03:59;102211.53;;;4.60;91.48
71805;BME280;59654;52.216;5.616;2023-04-30T01:04:31;102214.16;;;4.60;91.84
71805;BME280;59654;52.216;5.616;2023-04-30T01:05:03;102214.13;;;4.57;91.55
71805;BME280;59654;52.216;5.616;2023-04-30T01:05:36;102214.13;;;4.57;92.13
71805;BME280;59654;52.216;5.616;2023-04-30T01:06:07;102206.19;;;4.56;91.67
71805;BME280;59654;52.216;5.616;2023-04-30T01:06:38;102210.59;;;4.55;91.54
71805;BME280;59654;52.216;5.616;2023-04-30T01:07:09;102205.31;;;4.55;91.95
71805;BME280;59654;52.216;5.616;2023-04-30T01:07:40;102207.94;;;4.55;91.67
71805;BME280;59654;52.216;5.616;2023-04-30T01:08:14;102214.09;;;4.54;91.94
71805;BME280;59654;52.216;5.616;2023-04-30T01:08:47;102210.56;;;4.54;92.07
71805;BME280;59654;52.216;5.616;2023-04-30T01:09:18;102206.19;;;4.54;92.06
71805;BME280;59654;52.216;5.616;2023-04-30T01:09:49;102212.34;;;4.53;92.27
71805;BME280;59654;52.216;5.616;2023-04-30T01:12:12;102208.78;;;4.51;92.31
71805;BME280;59654;52.216;5.616;2023-04-30T01:13:07;102207.00;;;4.49;92.34
71805;BME280;59654;52.216;5.616;2023-04-30T01:14:12;102210.50;;;4.48;92.32
71805;BME280;59654;52.216;5.616;2023-04-30T01:16:32;102223.69;;;4.43;92.75
71805;BME280;59654;52.216;5.616;2023-04-30T01:17:16;102214.88;;;4.43;92.65
71805;BME280;59654;52.216;5.616;2023-04-30T01:18:51;102213.97;;;4.39;92.27
71805;BME280;59654;52.216;5.616;2023-04-30T01:20:02;102210.44;;;4.37;92.79
71805;BME280;59654;52.216;5.616;2023-04-30T01:20:38;102217.44;;;4.35;92.54
71805;BME280;59654;52.216;5.616;2023-04-30T01:21:38;102213.06;;;4.35;92.36
71805;BME280;59654;52.216;5.616;2023-04-30T01:22:29;102213.91;;;4.34;92.57
71805;BME280;59654;52.216;5.616;2023-04-30T01:24:14;102213.91;;;4.34;92.44
71805;BME280;59654;52.216;5.616;2023-04-30T01:24:42;102223.56;;;4.32;92.45
71805;BME280;59654;52.216;5.616;2023-04-30T01:25:51;102222.69;;;4.32;92.80
71805;BME280;59654;52.216;5.616;2023-04-30T01:28:07;102215.66;;;4.32;92.30
71805;BME280;59654;52.216;5.616;2023-04-30T01:28:42;102212.13;;;4.32;92.45
71805;BME280;59654;52.216;5.616;2023-04-30T01:29:16;102217.44;;;4.30;92.36
71805;BME280;59654;52.216;5.616;2023-04-30T01:29:49;102223.56;;;4.29;92.59
71805;BME280;59654;52.216;5.616;2023-04-30T01:30:21;102225.31;;;4.29;92.41
71805;BME280;59654;52.216;5.616;2023-04-30T01:30:53;102224.44;;;4.28;92.27
71805;BME280;59654;52.216;5.616;2023-04-30T01:31:27;102224.44;;;4.27;91.91
71805;BME280;59654;52.216;5.616;2023-04-30T01:31:58;102220.91;;;4.26;92.83
71805;BME280;59654;52.216;5.616;2023-04-30T01:32:29;102223.53;;;4.26;91.72
71805;BME280;59654;52.216;5.616;2023-04-30T01:33:00;102213.81;;;4.24;92.17
71805;BME280;59654;52.216;5.616;2023-04-30T01:33:32;102223.53;;;4.25;92.37
71805;BME280;59654;52.216;5.616;2023-04-30T01:34:02;102220.00;;;4.24;92.48
71805;BME280;59654;52.216;5.616;2023-04-30T01:34:34;102218.25;;;4.25;92.55
71805;BME280;59654;52.216;5.616;2023-04-30T01:35:05;102218.22;;;4.23;92.04
71805;BME280;59654;52.216;5.616;2023-04-30T01:37:44;102218.19;;;4.22;92.60
71805;BME280;59654;52.216;5.616;2023-04-30T01:42:13;102220.88;;;4.25;92.31
71805;BME280;59654;52.216;5.616;2023-04-30T01:46:27;102217.34;;;4.23;91.83
71805;BME280;59654;52.216;5.616;2023-04-30T01:47:13;102221.72;;;4.22;92.16
71805;BME280;59654;52.216;5.616;2023-04-30T01:48:23;102222.63;;;4.23;91.88
71805;BME280;59654;52.216;5.616;2023-04-30T01:50:33;102217.28;;;4.18;91.47
71805;BME280;59654;52.216;5.616;2023-04-30T01:51:35;102221.66;;;4.18;92.28
71805;BME280;59654;52.216;5.616;2023-04-30T01:52:40;102215.50;;;4.17;92.43
71805;BME280;59654;52.216;5.616;2023-04-30T01:53:21;102212.00;;;4.18;92.07
71805;BME280;59654;52.216;5.616;2023-04-30T01:53:59;102219.03;;;4.18;91.80
71805;BME280;59654;52.216;5.616;2023-04-30T01:54:48;102210.22;;;4.17;90.96
71805;BME280;59654;52.216;5.616;2023-04-30T01:55:43;102216.34;;;4.15;91.17
71805;BME280;59654;52.216;5.616;2023-04-30T01:56:28;102230.47;;;4.14;91.64
71805;BME280;59654;52.216;5.616;2023-04-30T01:57:05;102219.00;;;4.12;91.71
71805;BME280;59654;52.216;5.616;2023-04-30T01:57:41;102226.03;;;4.13;91.43
71805;BME280;59654;52.216;5.616;2023-04-30T01:58:16;102212.88;;;4.14;91.79
71805;BME280;59654;52.216;5.616;2023-04-30T01:58:48;102220.75;;;4.13;91.67
71805;BME280;59654;52.216;5.616;2023-04-30T01:59:21;102221.63;;;4.12;91.17
71805;BME280;59654;52.216;5.616;2023-04-30T01:59:53;102220.72;;;4.10;91.70
71805;BME280;59654;52.216;5.616;2023-04-30T02:00:25;102219.84;;;4.09;91.73
71805;BME280;59654;52.216;5.616;2023-04-30T02:01:06;102225.97;;;4.07;91.63
71805;BME280;59654;52.216;5.616;2023-04-30T02:01:43;102222.44;;;4.06;92.19
71805;BME280;59654;52.216;5.616;2023-04-30T02:02:14;102225.94;;;4.05;92.42
71805;BME280;59654;52.216;5.616;2023-04-30T02:02:45;102219.81;;;4.06;92.42
71805;BME280;59654;52.216;5.616;2023-04-30T02:03:15;102221.56;;;4.06;92.28
71805;BME280;59654;52.216;5.616;2023-04-30T02:03:46;102216.28;;;4.06;92.22
71805;BME280;59654;52.216;5.616;2023-04-30T02:04:17;102224.16;;;4.04;92.41
71805;BME280;59654;52.216;5.616;2023-04-30T02:04:48;102223.28;;;4.03;92.55
71805;BME280;59654;52.216;5.616;2023-04-30T02:05:19;102223.28;;;4.03;92.23
71805;BME280;59654;52.216;5.616;2023-04-30T02:05:51;102217.13;;;4.03;92.04
71805;BME280;59654;52.216;5.616;2023-04-30T02:06:23;102230.31;;;4.01;92.27
71805;BME280;59654;52.216;5.616;2023-04-30T02:06:59;102225.00;;;4.00;92.92
71805;BME280;59654;52.216;5.616;2023-04-30T02:07:40;102219.69;;;3.98;92.38
71805;BME280;59654;52.216;5.616;2023-04-30T02:08:14;102225.00;;;3.97;92.85
71805;BME280;59654;52.216;5.616;2023-04-30T02:08:45;102225.00;;;3.97;92.27
71805;BME280;59654;52.216;5.616;2023-04-30T02:09:16;102221.47;;;3.96;92.32
71805;BME280;59654;52.216;5.616;2023-04-30T02:09:47;102230.25;;;3.95;92.35
71805;BME280;59654;52.216;5.616;2023-04-30T02:10:23;102226.72;;;3.93;91.93
71805;BME280;59654;52.216;5.616;2023-04-30T02:10:54;102224.94;;;3.92;92.56
71805;BME280;59654;52.216;5.616;2023-04-30T02:11:25;102228.44;;;3.91;92.63
71805;BME280;59654;52.216;5.616;2023-04-30T02:11:56;102230.19;;;3.91;91.88
71805;BME280;59654;52.216;5.616;2023-04-30T02:12:27;102222.25;;;3.89;92.33
71805;BME280;59654;52.216;5.616;2023-04-30T02:12:59;102226.66;;;3.89;92.34
71805;BME280;59654;52.216;5.616;2023-04-30T02:13:30;102219.56;;;3.86;92.19
71805;BME280;59654;52.216;5.616;2023-04-30T02:14:01;102223.09;;;3.87;92.42
71805;BME280;59654;52.216;5.616;2023-04-30T02:14:32;102223.94;;;3.84;92.39
71805;BME280;59654;52.216;5.616;2023-04-30T02:15:03;102225.72;;;3.85;92.19
71805;BME280;59654;52.216;5.616;2023-04-30T02:15:35;102226.59;;;3.84;92.19
71805;BME280;59654;52.216;5.616;2023-04-30T02:16:06;102220.41;;;3.84;91.76
71805;BME280;59654;52.216;5.616;2023-04-30T02:16:37;102229.22;;;3.81;92.12
71805;BME280;59654;52.216;5.616;2023-04-30T02:17:08;102222.16;;;3.80;92.31
71805;BME280;59654;52.216;5.616;2023-04-30T02:17:38;102223.03;;;3.79;92.32
71805;BME280;59654;52.216;5.616;2023-04-30T02:18:09;102224.78;;;3.79;91.89
71805;BME280;59654;52.216;5.616;2023-04-30T02:18:40;102221.25;;;3.78;92.33
71805;BME280;59654;52.216;5.616;2023-04-30T02:19:12;102221.25;;;3.78;92.30
71805;BME280;59654;52.216;5.616;2023-04-30T02:19:42;102218.63;;;3.80;91.99
71805;BME280;59654;52.216;5.616;2023-04-30T02:20:13;102218.63;;;3.78;92.61
71805;BME280;59654;52.216;5.616;2023-04-30T02:20:44;102220.38;;;3.78;92.02
71805;BME280;59654;52.216;5.616;2023-04-30T02:21:15;102215.06;;;3.76;92.14
71805;BME280;59654;52.216;5.616;2023-04-30T02:21:46;102219.44;;;3.74;91.95
71805;BME280;59654;52.216;5.616;2023-04-30T02:22:17;102216.81;;;3.74;92.23
71805;BME280;59654;52.216;5.616;2023-04-30T02:22:48;102222.91;;;3.72;92.09
71805;BME280;59654;52.216;5.616;2023-04-30T02:23:20;102224.66;;;3.70;92.30
71805;BME280;59654;52.216;5.616;2023-04-30T02:23:51;102222.00;;;3.68;92.54
71805;BME280;59654;52.216;5.616;2023-04-30T02:24:22;102219.34;;;3.66;91.96
71805;BME280;59654;52.216;5.616;2023-04-30T02:24:53;102224.59;;;3.66;92.68
71805;BME280;59654;52.216;5.616;2023-04-30T02:25:25;102221.97;;;3.65;92.59
71805;BME280;59654;52.216;5.616;2023-04-30T02:25:56;102218.44;;;3.66;92.76
71805;BME280;59654;52.216;5.616;2023-04-30T02:26:26;102218.44;;;3.66;92.51
71805;BME280;59654;52.216;5.616;2023-04-30T02:26:57;102215.81;;;3.66;92.55
71805;BME280;59654;52.216;5.616;2023-04-30T02:27:30;102219.34;;;3.65;92.84
71805;BME280;59654;52.216;5.616;2023-04-30T02:28:01;102209.66;;;3.64;92.49
71805;BME280;59654;52.216;5.616;2023-04-30T02:28:33;102217.56;;;3.64;92.48
71805;BME280;59654;52.216;5.616;2023-04-30T02:29:03;102223.72;;;3.63;92.37
71805;BME280;59654;52.216;5.616;2023-04-30T02:29:34;102219.31;;;3.62;92.39
71805;BME280;59654;52.216;5.616;2023-04-30T02:30:06;102215.78;;;3.61;92.58
71805;BME280;59654;52.216;5.616;2023-04-30T02:30:37;102215.75;;;3.60;92.78
71805;BME280;59654;52.216;5.616;2023-04-30T02:31:08;102214.88;;;3.61;92.46
71805;BME280;59654;52.216;5.616;2023-04-30T02:31:39;102223.66;;;3.60;93.22
71805;BME280;59654;52.216;5.616;2023-04-30T02:32:14;102219.25;;;3.59;92.66
71805;BME280;59654;52.216;5.616;2023-04-30T02:32:45;102217.50;;;3.59;92.59
71805;BME280;59654;52.216;5.616;2023-04-30T02:33:16;102219.25;;;3.59;92.98
71805;BME280;59654;52.216;5.616;2023-04-30T02:33:47;102217.47;;;3.56;92.54
71805;BME280;59654;52.216;5.616;2023-04-30T02:34:18;102222.72;;;3.56;92.70
71805;BME280;59654;52.216;5.616;2023-04-30T02:34:49;102221.81;;;3.54;92.76
71805;BME280;59654;52.216;5.616;2023-04-30T02:35:20;102215.63;;;3.52;92.69
71805;BME280;59654;52.216;5.616;2023-04-30T02:35:50;102217.38;;;3.50;92.63
71805;BME280;59654;52.216;5.616;2023-04-30T02:36:21;102216.47;;;3.50;92.95
71805;BME280;59654;52.216;5.616;2023-04-30T02:36:52;102220.91;;;3.49;92.92
71805;BME280;59654;52.216;5.616;2023-04-30T02:37:23;102217.38;;;3.49;92.84
71805;BME280;59654;52.216;5.616;2023-04-30T02:37:54;102212.06;;;3.46;92.99
71805;BME280;59654;52.216;5.616;2023-04-30T02:38:25;102217.31;;;3.44;92.63
71805;BME280;59654;52.216;5.616;2023-04-30T02:38:56;102220.84;;;3.45;93.46
71805;BME280;59654;52.216;5.616;2023-04-30T02:39:26;102219.06;;;3.44;92.98
71805;BME280;59654;52.216;5.616;2023-04-30T02:39:57;102223.47;;;3.45;93.43
71805;BME280;59654;52.216;5.616;2023-04-30T02:40:29;102224.34;;;3.44;92.74
71805;BME280;59654;52.216;5.616;2023-04-30T02:41:00;102217.28;;;3.43;93.13
71805;BME280;59654;52.216;5.616;2023-04-30T02:41:31;102222.56;;;3.43;92.57
71805;BME280;59654;52.216;5.616;2023-04-30T02:42:02;102218.16;;;3.43;92.31
71805;BME280;59654;52.216;5.616;2023-04-30T02:42:34;102213.75;;;3.42;92.48
71805;BME280;59654;52.216;5.616;2023-04-30T02:43:07;102216.41;;;3.42;92.26
71805;BME280;59654;52.216;5.616;2023-04-30T02:43:38;102219.88;;;3.40;92.25
71805;BME280;59654;52.216;5.616;2023-04-30T02:44:10;102210.19;;;3.39;92.37
71805;BME280;59654;52.216;5.616;2023-04-30T02:44:41;102211.97;;;3.40;92.93
71805;BME280;59654;52.216;5.616;2023-04-30T02:45:13;102215.47;;;3.39;93.19
71805;BME280;59654;52.216;5.616;2023-04-30T02:45:44;102215.50;;;3.40;92.66
71805;BME280;59654;52.216;5.616;2023-04-30T02:46:14;102219.00;;;3.41;93.10
71805;BME280;59654;52.216;5.616;2023-04-30T02:46:45;102216.34;;;3.39;92.79
71805;BME280;59654;52.216;5.616;2023-04-30T02:47:16;102214.59;;;3.38;92.18
71805;BME280;59654;52.216;5.616;2023-04-30T02:47:47;102216.34;;;3.38;92.32
71805;BME280;59654;52.216;5.616;2023-04-30T02:48:18;102211.91;;;3.37;92.25
71805;BME280;59654;52.216;5.616;2023-04-30T02:48:49;102211.91;;;3.37;92.33
71805;BME280;59654;52.216;5.616;2023-04-30T02:49:20;102218.97;;;3.38;92.27
71805;BME280;59654;52.216;5.616;2023-04-30T02:49:50;102218.06;;;3.36;92.69
71805;BME280;59654;52.216;5.616;2023-04-30T02:50:21;102215.41;;;3.36;93.07
71805;BME280;59654;52.216;5.616;2023-04-30T02:50:52;102218.06;;;3.36;92.80
71805;BME280;59654;52.216;5.616;2023-04-30T02:51:23;102221.56;;;3.35;92.44
71805;BME280;59654;52.216;5.616;2023-04-30T02:51:54;102214.50;;;3.33;92.87
71805;BME280;59654;52.216;5.616;2023-04-30T02:52:25;102218.91;;;3.35;92.89
71805;BME280;59654;52.216;5.616;2023-04-30T02:52:56;102216.31;;;3.36;92.68
71805;BME280;59654;52.216;5.616;2023-04-30T02:53:27;102225.97;;;3.36;91.85
71805;BME280;59654;52.216;5.616;2023-04-30T02:53:57;102225.06;;;3.33;92.57
71805;BME280;59654;52.216;5.616;2023-04-30T02:54:28;102218.03;;;3.34;92.92
71805;BME280;59654;52.216;5.616;2023-04-30T02:55:00;102219.78;;;3.33;92.06
71805;BME280;59654;52.216;5.616;2023-04-30T02:55:30;102219.78;;;3.33;92.22
71805;BME280;59654;52.216;5.616;2023-04-30T02:56:02;102221.56;;;3.35;92.38
71805;BME280;59654;52.216;5.616;2023-04-30T02:56:33;102221.56;;;3.35;92.25
71805;BME280;59654;52.216;5.616;2023-04-30T02:57:04;102214.50;;;3.33;91.98
71805;BME280;59654;52.216;5.616;2023-04-30T02:57:35;102223.31;;;3.34;92.45
71805;BME280;59654;52.216;5.616;2023-04-30T02:58:05;102217.16;;;3.33;92.79
71805;BME280;59654;52.216;5.616;2023-04-30T02:58:36;102214.53;;;3.35;93.02
71805;BME280;59654;52.216;5.616;2023-04-30T02:59:07;102219.81;;;3.35;92.58
71805;BME280;59654;52.216;5.616;2023-04-30T02:59:38;102214.53;;;3.35;92.54
71805;BME280;59654;52.216;5.616;2023-04-30T03:00:09;102214.53;;;3.35;92.77
71805;BME280;59654;52.216;5.616;2023-04-30T03:00:41;102216.31;;;3.36;92.90
71805;BME280;59654;52.216;5.616;2023-04-30T03:01:12;102215.44;;;3.37;91.88
71805;BME280;59654;52.216;5.616;2023-04-30T03:01:43;102213.69;;;3.38;91.98
71805;BME280;59654;52.216;5.616;2023-04-30T03:02:14;102212.84;;;3.39;92.27
71805;BME280;59654;52.216;5.616;2023-04-30T03:02:46;102207.53;;;3.37;92.11
71805;BME280;59654;52.216;5.616;2023-04-30T03:03:16;102211.94;;;3.38;91.91
71805;BME280;59654;52.216;5.616;2023-04-30T03:03:47;102205.78;;;3.38;92.54
71805;BME280;59654;52.216;5.616;2023-04-30T03:04:18;102203.13;;;3.36;92.68
71805;BME280;59654;52.216;5.616;2023-04-30T03:04:50;102205.78;;;3.38;92.41
71805;BME280;59654;52.216;5.616;2023-04-30T03:05:20;102210.16;;;3.37;92.45
71805;BME280;59654;52.216;5.616;2023-04-30T03:05:52;102208.41;;;3.36;91.76
71805;BME280;59654;52.216;5.616;2023-04-30T03:06:25;102206.63;;;3.35;91.51
71805;BME280;59654;52.216;5.616;2023-04-30T03:06:56;102207.50;;;3.34;91.54
71805;BME280;59654;52.216;5.616;2023-04-30T03:07:27;102210.13;;;3.34;91.20
71805;BME280;59654;52.216;5.616;2023-04-30T03:07:58;102203.09;;;3.31;91.15
71805;BME280;59654;52.216;5.616;2023-04-30T03:08:29;102205.72;;;3.31;90.58
71805;BME280;59654;52.216;5.616;2023-04-30T03:09:00;102208.31;;;3.28;91.23
71805;BME280;59654;52.216;5.616;2023-04-30T03:09:31;102204.78;;;3.28;91.38
71805;BME280;59654;52.216;5.616;2023-04-30T03:10:02;102206.53;;;3.27;91.15
71805;BME280;59654;52.216;5.616;2023-04-30T03:10:33;102201.28;;;3.27;91.37
71805;BME280;59654;52.216;5.616;2023-04-30T03:11:04;102203.88;;;3.26;91.44
71805;BME280;59654;52.216;5.616;2023-04-30T03:11:35;102208.25;;;3.24;91.89
71805;BME280;59654;52.216;5.616;2023-04-30T03:12:07;102203.84;;;3.24;91.78